sensor_id;sensor_type;location;lat;lon;timestamp;P1;durP1;ratioP1;P2;durP2;ratioP2
15669;SDS011;18524;45.190;5.732;2023-03-25T00:01:59;23.70;;;21.23;;
15669;SDS011;18524;45.190;5.732;2023-03-25T00:06:49;22.63;;;20.23;;
15669;SDS011;18524;45.190;5.732;2023-03-25T00:11:40;20.97;;;18.63;;
15669;SDS011;18524;45.190;5.732;2023-03-25T00:16:30;19.17;;;17.30;;
15669;SDS011;18524;45.190;5.732;2023-03-25T00:21:20;18.77;;;16.87;;
15669;SDS011;18524;45.190;5.732;2023-03-25T00:26:12;16.63;;;14.93;;
15669;SDS011;18524;45.190;5.732;2023-03-25T00:31:04;15.47;;;13.87;;
15669;SDS011;18524;45.190;5.732;2023-03-25T00:35:57;18.43;;;16.40;;
15669;SDS011;18524;45.190;5.732;2023-03-25T00:40:48;17.07;;;15.27;;
15669;SDS011;18524;45.190;5.732;2023-03-25T00:45:38;15.00;;;12.83;;
15669;SDS011;18524;45.190;5.732;2023-03-25T00:50:29;13.97;;;12.47;;
15669;SDS011;18524;45.190;5.732;2023-03-25T00:55:19;13.20;;;11.67;;
15669;SDS011;18524;45.190;5.732;2023-03-25T01:00:10;17.23;;;15.57;;
15669;SDS011;18524;45.190;5.732;2023-03-25T01:05:05;19.20;;;17.17;;
15669;SDS011;18524;45.190;5.732;2023-03-25T01:09:59;17.40;;;15.43;;
15669;SDS011;18524;45.190;5.732;2023-03-25T01:14:50;14.93;;;12.03;;
15669;SDS011;18524;45.190;5.732;2023-03-25T01:19:40;15.63;;;11.00;;
15669;SDS011;18524;45.190;5.732;2023-03-25T01:24:31;13.43;;;12.03;;
15669;SDS011;18524;45.190;5.732;2023-03-25T01:29:21;15.10;;;13.43;;
15669;SDS011;18524;45.190;5.732;2023-03-25T01:34:12;17.13;;;15.33;;
15669;SDS011;18524;45.190;5.732;2023-03-25T01:39:03;20.67;;;18.07;;
15669;SDS011;18524;45.190;5.732;2023-03-25T01:49:03;21.37;;;19.03;;
15669;SDS011;18524;45.190;5.732;2023-03-25T01:53:56;21.63;;;17.83;;
15669;SDS011;18524;45.190;5.732;2023-03-25T01:58:47;20.83;;;18.03;;
15669;SDS011;18524;45.190;5.732;2023-03-25T02:03:40;17.87;;;15.93;;
15669;SDS011;18524;45.190;5.732;2023-03-25T02:08:36;17.90;;;13.00;;
15669;SDS011;18524;45.190;5.732;2023-03-25T02:13:28;15.33;;;12.07;;
15669;SDS011;18524;45.190;5.732;2023-03-25T02:18:25;12.20;;;10.30;;
15669;SDS011;18524;45.190;5.732;2023-03-25T02:23:37;13.43;;;10.70;;
15669;SDS011;18524;45.190;5.732;2023-03-25T02:44:04;12.13;;;8.73;;
15669;SDS011;18524;45.190;5.732;2023-03-25T02:49:05;8.60;;;7.63;;
15669;SDS011;18524;45.190;5.732;2023-03-25T02:54:11;14.37;;;12.87;;
15669;SDS011;18524;45.190;5.732;2023-03-25T02:59:02;18.53;;;16.03;;
15669;SDS011;18524;45.190;5.732;2023-03-25T03:03:54;20.43;;;17.20;;
15669;SDS011;18524;45.190;5.732;2023-03-25T03:09:10;24.20;;;20.13;;
15669;SDS011;18524;45.190;5.732;2023-03-25T03:29:11;15.27;;;13.23;;
15669;SDS011;18524;45.190;5.732;2023-03-25T03:34:12;14.13;;;12.47;;
15669;SDS011;18524;45.190;5.732;2023-03-25T03:39:11;16.07;;;12.10;;
15669;SDS011;18524;45.190;5.732;2023-03-25T03:44:16;9.57;;;8.50;;
15669;SDS011;18524;45.190;5.732;2023-03-25T03:49:11;10.13;;;7.87;;
15669;SDS011;18524;45.190;5.732;2023-03-25T03:54:13;7.70;;;6.50;;
15669;SDS011;18524;45.190;5.732;2023-03-25T03:59:11;9.10;;;7.47;;
15669;SDS011;18524;45.190;5.732;2023-03-25T04:04:06;8.70;;;7.30;;
15669;SDS011;18524;45.190;5.732;2023-03-25T04:09:01;9.90;;;7.50;;
15669;SDS011;18524;45.190;5.732;2023-03-25T04:13:58;12.57;;;10.23;;
15669;SDS011;18524;45.190;5.732;2023-03-25T04:18:52;12.23;;;10.93;;
15669;SDS011;18524;45.190;5.732;2023-03-25T04:23:42;11.80;;;10.50;;
15669;SDS011;18524;45.190;5.732;2023-03-25T04:28:35;10.50;;;9.40;;
15669;SDS011;18524;45.190;5.732;2023-03-25T04:33:25;11.10;;;10.00;;
15669;SDS011;18524;45.190;5.732;2023-03-25T04:38:20;12.27;;;10.00;;
15669;SDS011;18524;45.190;5.732;2023-03-25T04:43:14;11.20;;;10.00;;
15669;SDS011;18524;45.190;5.732;2023-03-25T04:48:05;12.50;;;9.60;;
15669;SDS011;18524;45.190;5.732;2023-03-25T04:52:56;10.70;;;9.07;;
15669;SDS011;18524;45.190;5.732;2023-03-25T04:57:47;12.20;;;9.77;;
15669;SDS011;18524;45.190;5.732;2023-03-25T05:02:43;10.93;;;9.73;;
15669;SDS011;18524;45.190;5.732;2023-03-25T05:07:37;9.77;;;8.43;;
15669;SDS011;18524;45.190;5.732;2023-03-25T05:12:27;8.53;;;6.50;;
15669;SDS011;18524;45.190;5.732;2023-03-25T05:17:18;8.30;;;6.37;;
15669;SDS011;18524;45.190;5.732;2023-03-25T05:22:08;8.87;;;6.20;;
15669;SDS011;18524;45.190;5.732;2023-03-25T05:26:58;6.87;;;5.80;;
15669;SDS011;18524;45.190;5.732;2023-03-25T05:31:51;6.13;;;5.30;;
15669;SDS011;18524;45.190;5.732;2023-03-25T05:36:41;7.00;;;5.40;;
15669;SDS011;18524;45.190;5.732;2023-03-25T05:41:32;6.90;;;4.70;;
15669;SDS011;18524;45.190;5.732;2023-03-25T05:46:27;4.87;;;4.43;;
15669;SDS011;18524;45.190;5.732;2023-03-25T05:51:21;4.93;;;4.20;;
15669;SDS011;18524;45.190;5.732;2023-03-25T05:56:11;5.47;;;4.57;;
15669;SDS011;18524;45.190;5.732;2023-03-25T06:01:02;7.47;;;4.60;;
15669;SDS011;18524;45.190;5.732;2023-03-25T06:05:53;5.37;;;3.97;;
15669;SDS011;18524;45.190;5.732;2023-03-25T06:10:44;5.53;;;4.00;;
15669;SDS011;18524;45.190;5.732;2023-03-25T06:15:34;5.80;;;3.87;;
15669;SDS011;18524;45.190;5.732;2023-03-25T06:20:28;4.63;;;3.80;;
15669;SDS011;18524;45.190;5.732;2023-03-25T06:25:18;6.00;;;3.80;;
15669;SDS011;18524;45.190;5.732;2023-03-25T06:30:11;4.53;;;3.20;;
15669;SDS011;18524;45.190;5.732;2023-03-25T06:35:03;4.23;;;3.40;;
15669;SDS011;18524;45.190;5.732;2023-03-25T06:39:56;4.17;;;3.47;;
15669;SDS011;18524;45.190;5.732;2023-03-25T06:44:48;4.13;;;3.07;;
15669;SDS011;18524;45.190;5.732;2023-03-25T06:49:39;3.47;;;2.90;;
15669;SDS011;18524;45.190;5.732;2023-03-25T06:54:29;4.57;;;2.50;;
15669;SDS011;18524;45.190;5.732;2023-03-25T06:59:20;6.70;;;4.30;;
15669;SDS011;18524;45.190;5.732;2023-03-25T07:04:10;3.40;;;2.67;;
15669;SDS011;18524;45.190;5.732;2023-03-25T07:09:00;3.27;;;2.37;;
15669;SDS011;18524;45.190;5.732;2023-03-25T07:13:51;11.20;;;8.57;;
15669;SDS011;18524;45.190;5.732;2023-03-25T07:18:42;4.80;;;4.40;;
15669;SDS011;18524;45.190;5.732;2023-03-25T07:23:33;4.57;;;3.20;;
15669;SDS011;18524;45.190;5.732;2023-03-25T07:28:23;5.23;;;3.37;;
15669;SDS011;18524;45.190;5.732;2023-03-25T07:33:14;3.27;;;2.97;;
15669;SDS011;18524;45.190;5.732;2023-03-25T07:38:05;4.00;;;3.37;;
15669;SDS011;18524;45.190;5.732;2023-03-25T07:42:55;4.67;;;3.30;;
15669;SDS011;18524;45.190;5.732;2023-03-25T07:47:46;4.20;;;3.10;;
15669;SDS011;18524;45.190;5.732;2023-03-25T07:52:39;3.67;;;2.77;;
15669;SDS011;18524;45.190;5.732;2023-03-25T07:57:29;4.10;;;2.57;;
15669;SDS011;18524;45.190;5.732;2023-03-25T08:02:20;2.63;;;1.97;;
15669;SDS011;18524;45.190;5.732;2023-03-25T08:07:10;3.13;;;1.73;;
15669;SDS011;18524;45.190;5.732;2023-03-25T08:12:01;2.13;;;1.70;;
15669;SDS011;18524;45.190;5.732;2023-03-25T08:16:51;2.57;;;1.70;;
15669;SDS011;18524;45.190;5.732;2023-03-25T08:21:42;3.93;;;1.80;;
15669;SDS011;18524;45.190;5.732;2023-03-25T08:26:32;3.20;;;1.77;;
15669;SDS011;18524;45.190;5.732;2023-03-25T08:31:24;3.87;;;2.10;;
15669;SDS011;18524;45.190;5.732;2023-03-25T08:36:15;4.10;;;1.70;;
15669;SDS011;18524;45.190;5.732;2023-03-25T08:41:08;1.93;;;1.20;;
15669;SDS011;18524;45.190;5.732;2023-03-25T08:45:59;5.00;;;1.70;;
15669;SDS011;18524;45.190;5.732;2023-03-25T08:50:49;4.27;;;2.20;;
15669;SDS011;18524;45.190;5.732;2023-03-25T08:55:40;3.00;;;2.07;;
15669;SDS011;18524;45.190;5.732;2023-03-25T09:00:30;4.07;;;2.00;;
15669;SDS011;18524;45.190;5.732;2023-03-25T09:05:21;4.17;;;2.20;;
15669;SDS011;18524;45.190;5.732;2023-03-25T09:10:11;6.10;;;2.20;;
15669;SDS011;18524;45.190;5.732;2023-03-25T09:15:02;4.93;;;2.37;;
15669;SDS011;18524;45.190;5.732;2023-03-25T09:19:53;5.67;;;2.50;;
15669;SDS011;18524;45.190;5.732;2023-03-25T09:24:43;4.40;;;2.70;;
15669;SDS011;18524;45.190;5.732;2023-03-25T09:29:34;4.27;;;2.03;;
15669;SDS011;18524;45.190;5.732;2023-03-25T09:34:25;5.30;;;1.90;;
15669;SDS011;18524;45.190;5.732;2023-03-25T09:39:16;3.93;;;1.70;;
15669;SDS011;18524;45.190;5.732;2023-03-25T09:49:12;5.40;;;2.03;;
15669;SDS011;18524;45.190;5.732;2023-03-25T09:59:16;4.60;;;1.77;;
15669;SDS011;18524;45.190;5.732;2023-03-25T10:15:13;4.10;;;1.90;;
15669;SDS011;18524;45.190;5.732;2023-03-25T10:20:27;3.77;;;2.00;;
15669;SDS011;18524;45.190;5.732;2023-03-25T10:25:23;5.60;;;1.93;;
15669;SDS011;18524;45.190;5.732;2023-03-25T10:30:26;3.13;;;1.50;;
15669;SDS011;18524;45.190;5.732;2023-03-25T10:35:24;3.17;;;1.30;;
15669;SDS011;18524;45.190;5.732;2023-03-25T10:40:21;3.33;;;1.30;;
15669;SDS011;18524;45.190;5.732;2023-03-25T10:45:16;3.10;;;1.60;;
15669;SDS011;18524;45.190;5.732;2023-03-25T10:50:11;3.60;;;1.53;;
15669;SDS011;18524;45.190;5.732;2023-03-25T10:55:05;2.63;;;1.53;;
15669;SDS011;18524;45.190;5.732;2023-03-25T11:00:14;3.60;;;1.60;;
15669;SDS011;18524;45.190;5.732;2023-03-25T11:05:07;3.63;;;1.90;;
15669;SDS011;18524;45.190;5.732;2023-03-25T11:15:20;8.67;;;1.90;;
15669;SDS011;18524;45.190;5.732;2023-03-25T11:20:17;4.50;;;1.70;;
15669;SDS011;18524;45.190;5.732;2023-03-25T11:25:23;2.93;;;1.50;;
15669;SDS011;18524;45.190;5.732;2023-03-25T11:30:19;2.87;;;1.40;;
15669;SDS011;18524;45.190;5.732;2023-03-25T11:35:15;3.83;;;1.60;;
15669;SDS011;18524;45.190;5.732;2023-03-25T11:40:14;2.87;;;1.60;;
15669;SDS011;18524;45.190;5.732;2023-03-25T11:45:18;3.10;;;1.50;;
15669;SDS011;18524;45.190;5.732;2023-03-25T11:50:18;2.77;;;1.00;;
15669;SDS011;18524;45.190;5.732;2023-03-25T11:55:18;2.83;;;1.10;;
15669;SDS011;18524;45.190;5.732;2023-03-25T12:00:19;2.07;;;1.20;;
15669;SDS011;18524;45.190;5.732;2023-03-25T12:05:13;2.33;;;1.10;;
15669;SDS011;18524;45.190;5.732;2023-03-25T12:10:05;1.67;;;1.00;;
15669;SDS011;18524;45.190;5.732;2023-03-25T12:25:01;2.00;;;0.70;;
15669;SDS011;18524;45.190;5.732;2023-03-25T12:30:16;1.47;;;0.80;;
15669;SDS011;18524;45.190;5.732;2023-03-25T12:40:22;1.73;;;0.87;;
15669;SDS011;18524;45.190;5.732;2023-03-25T12:50:19;2.33;;;0.97;;
15669;SDS011;18524;45.190;5.732;2023-03-25T12:55:30;1.40;;;0.70;;
15669;SDS011;18524;45.190;5.732;2023-03-25T13:05:52;1.20;;;0.60;;
15669;SDS011;18524;45.190;5.732;2023-03-25T13:10:46;1.17;;;0.53;;
15669;SDS011;18524;45.190;5.732;2023-03-25T13:15:45;1.47;;;0.70;;
15669;SDS011;18524;45.190;5.732;2023-03-25T13:25:55;1.60;;;0.80;;
15669;SDS011;18524;45.190;5.732;2023-03-25T13:30:49;1.40;;;0.60;;
15669;SDS011;18524;45.190;5.732;2023-03-25T13:35:49;1.40;;;0.70;;
15669;SDS011;18524;45.190;5.732;2023-03-25T13:40:45;1.90;;;0.80;;
15669;SDS011;18524;45.190;5.732;2023-03-25T13:45:50;1.70;;;0.90;;
15669;SDS011;18524;45.190;5.732;2023-03-25T13:50:47;2.17;;;1.17;;
15669;SDS011;18524;45.190;5.732;2023-03-25T13:55:39;1.43;;;0.90;;
15669;SDS011;18524;45.190;5.732;2023-03-25T14:10:46;2.20;;;0.70;;
15669;SDS011;18524;45.190;5.732;2023-03-25T14:15:50;2.67;;;0.90;;
15669;SDS011;18524;45.190;5.732;2023-03-25T14:20:45;3.13;;;1.00;;
15669;SDS011;18524;45.190;5.732;2023-03-25T14:25:38;1.30;;;0.50;;
15669;SDS011;18524;45.190;5.732;2023-03-25T14:30:31;2.63;;;0.60;;
15669;SDS011;18524;45.190;5.732;2023-03-25T14:45:32;2.97;;;0.70;;
15669;SDS011;18524;45.190;5.732;2023-03-25T15:00:31;2.03;;;0.80;;
15669;SDS011;18524;45.190;5.732;2023-03-25T15:05:24;2.13;;;0.80;;
15669;SDS011;18524;45.190;5.732;2023-03-25T15:10:24;1.43;;;0.60;;
15669;SDS011;18524;45.190;5.732;2023-03-25T15:15:25;2.43;;;0.87;;
15669;SDS011;18524;45.190;5.732;2023-03-25T15:25:12;1.70;;;0.70;;
15669;SDS011;18524;45.190;5.732;2023-03-25T15:56:23;2.83;;;1.17;;
15669;SDS011;18524;45.190;5.732;2023-03-25T16:01:34;2.47;;;1.30;;
15669;SDS011;18524;45.190;5.732;2023-03-25T16:06:28;2.47;;;1.20;;
15669;SDS011;18524;45.190;5.732;2023-03-25T16:16:11;4.47;;;1.10;;
15669;SDS011;18524;45.190;5.732;2023-03-25T16:21:05;2.13;;;0.80;;
15669;SDS011;18524;45.190;5.732;2023-03-25T16:25:55;3.20;;;1.23;;
15669;SDS011;18524;45.190;5.732;2023-03-25T16:30:49;2.70;;;1.10;;
15669;SDS011;18524;45.190;5.732;2023-03-25T16:35:45;3.40;;;1.00;;
15669;SDS011;18524;45.190;5.732;2023-03-25T16:40:41;2.10;;;0.90;;
15669;SDS011;18524;45.190;5.732;2023-03-25T16:45:32;1.70;;;0.83;;
15669;SDS011;18524;45.190;5.732;2023-03-25T16:50:24;2.77;;;0.90;;
15669;SDS011;18524;45.190;5.732;2023-03-25T16:55:26;2.50;;;1.10;;
15669;SDS011;18524;45.190;5.732;2023-03-25T17:00:21;3.10;;;0.90;;
15669;SDS011;18524;45.190;5.732;2023-03-25T17:05:15;5.73;;;1.73;;
15669;SDS011;18524;45.190;5.732;2023-03-25T17:10:13;3.40;;;1.30;;
15669;SDS011;18524;45.190;5.732;2023-03-25T17:15:06;2.43;;;1.20;;
15669;SDS011;18524;45.190;5.732;2023-03-25T17:20:02;4.40;;;1.40;;
15669;SDS011;18524;45.190;5.732;2023-03-25T17:25:10;5.07;;;1.60;;
15669;SDS011;18524;45.190;5.732;2023-03-25T17:30:16;3.13;;;1.43;;
15669;SDS011;18524;45.190;5.732;2023-03-25T17:35:25;3.23;;;1.13;;
15669;SDS011;18524;45.190;5.732;2023-03-25T17:40:23;4.13;;;1.60;;
15669;SDS011;18524;45.190;5.732;2023-03-25T17:45:15;3.57;;;1.33;;
15669;SDS011;18524;45.190;5.732;2023-03-25T17:50:14;4.67;;;1.60;;
15669;SDS011;18524;45.190;5.732;2023-03-25T17:55:06;2.70;;;1.60;;
15669;SDS011;18524;45.190;5.732;2023-03-25T17:59:57;3.67;;;1.83;;
15669;SDS011;18524;45.190;5.732;2023-03-25T18:04:47;2.80;;;1.50;;
15669;SDS011;18524;45.190;5.732;2023-03-25T18:09:37;2.80;;;1.53;;
15669;SDS011;18524;45.190;5.732;2023-03-25T18:14:29;3.73;;;1.67;;
15669;SDS011;18524;45.190;5.732;2023-03-25T18:19:23;4.83;;;2.47;;
15669;SDS011;18524;45.190;5.732;2023-03-25T18:24:16;9.23;;;3.93;;
15669;SDS011;18524;45.190;5.732;2023-03-25T18:29:11;7.17;;;5.00;;
15669;SDS011;18524;45.190;5.732;2023-03-25T18:34:09;8.77;;;5.33;;
15669;SDS011;18524;45.190;5.732;2023-03-25T18:39:01;8.80;;;5.00;;
15669;SDS011;18524;45.190;5.732;2023-03-25T18:43:53;11.80;;;6.30;;
15669;SDS011;18524;45.190;5.732;2023-03-25T18:48:43;6.50;;;4.17;;
15669;SDS011;18524;45.190;5.732;2023-03-25T18:53:34;6.33;;;4.53;;
15669;SDS011;18524;45.190;5.732;2023-03-25T18:58:26;7.17;;;5.10;;
15669;SDS011;18524;45.190;5.732;2023-03-25T19:03:19;7.03;;;5.23;;
15669;SDS011;18524;45.190;5.732;2023-03-25T19:08:19;7.40;;;5.00;;
15669;SDS011;18524;45.190;5.732;2023-03-25T19:13:09;7.87;;;5.10;;
15669;SDS011;18524;45.190;5.732;2023-03-25T19:18:00;7.00;;;4.27;;
15669;SDS011;18524;45.190;5.732;2023-03-25T19:22:50;4.37;;;3.90;;
15669;SDS011;18524;45.190;5.732;2023-03-25T19:27:41;5.83;;;3.73;;
15669;SDS011;18524;45.190;5.732;2023-03-25T19:32:32;5.87;;;3.77;;
15669;SDS011;18524;45.190;5.732;2023-03-25T19:37:23;5.90;;;4.20;;
15669;SDS011;18524;45.190;5.732;2023-03-25T19:42:15;8.13;;;4.60;;
15669;SDS011;18524;45.190;5.732;2023-03-25T19:47:06;6.83;;;4.33;;
15669;SDS011;18524;45.190;5.732;2023-03-25T19:51:57;7.23;;;4.83;;
15669;SDS011;18524;45.190;5.732;2023-03-25T19:56:47;10.10;;;5.73;;
15669;SDS011;18524;45.190;5.732;2023-03-25T20:01:38;11.27;;;6.83;;
15669;SDS011;18524;45.190;5.732;2023-03-25T20:06:28;9.80;;;6.27;;
15669;SDS011;18524;45.190;5.732;2023-03-25T20:11:20;13.47;;;8.37;;
15669;SDS011;18524;45.190;5.732;2023-03-25T20:16:10;12.37;;;8.37;;
15669;SDS011;18524;45.190;5.732;2023-03-25T20:21:01;13.13;;;8.90;;
15669;SDS011;18524;45.190;5.732;2023-03-25T20:25:51;9.57;;;7.40;;
15669;SDS011;18524;45.190;5.732;2023-03-25T20:30:42;17.43;;;11.23;;
15669;SDS011;18524;45.190;5.732;2023-03-25T20:35:32;10.97;;;6.23;;
15669;SDS011;18524;45.190;5.732;2023-03-25T20:40:24;10.03;;;6.10;;
15669;SDS011;18524;45.190;5.732;2023-03-25T20:45:15;10.27;;;6.77;;
15669;SDS011;18524;45.190;5.732;2023-03-25T20:50:06;8.37;;;5.67;;
15669;SDS011;18524;45.190;5.732;2023-03-25T20:54:58;8.40;;;5.73;;
15669;SDS011;18524;45.190;5.732;2023-03-25T20:59:48;7.40;;;5.40;;
15669;SDS011;18524;45.190;5.732;2023-03-25T21:04:41;9.93;;;5.87;;
15669;SDS011;18524;45.190;5.732;2023-03-25T21:09:32;6.03;;;4.30;;
15669;SDS011;18524;45.190;5.732;2023-03-25T21:14:22;4.97;;;3.90;;
15669;SDS011;18524;45.190;5.732;2023-03-25T21:19:13;6.27;;;4.40;;
15669;SDS011;18524;45.190;5.732;2023-03-25T21:24:03;6.63;;;4.17;;
15669;SDS011;18524;45.190;5.732;2023-03-25T21:28:55;16.00;;;8.20;;
15669;SDS011;18524;45.190;5.732;2023-03-25T21:33:46;6.60;;;4.30;;
15669;SDS011;18524;45.190;5.732;2023-03-25T21:38:38;8.13;;;5.30;;
15669;SDS011;18524;45.190;5.732;2023-03-25T21:43:29;7.33;;;4.80;;
15669;SDS011;18524;45.190;5.732;2023-03-25T21:48:20;7.63;;;5.17;;
15669;SDS011;18524;45.190;5.732;2023-03-25T21:53:12;7.53;;;4.90;;
15669;SDS011;18524;45.190;5.732;2023-03-25T21:58:07;6.77;;;4.80;;
15669;SDS011;18524;45.190;5.732;2023-03-25T22:02:59;6.80;;;4.67;;
15669;SDS011;18524;45.190;5.732;2023-03-25T22:07:49;7.57;;;4.60;;
15669;SDS011;18524;45.190;5.732;2023-03-25T22:12:40;7.93;;;4.93;;
15669;SDS011;18524;45.190;5.732;2023-03-25T22:17:30;6.93;;;4.60;;
15669;SDS011;18524;45.190;5.732;2023-03-25T22:22:21;6.80;;;4.60;;
15669;SDS011;18524;45.190;5.732;2023-03-25T22:27:11;5.77;;;3.67;;
15669;SDS011;18524;45.190;5.732;2023-03-25T22:32:01;5.47;;;4.00;;
15669;SDS011;18524;45.190;5.732;2023-03-25T22:36:56;7.63;;;4.27;;
15669;SDS011;18524;45.190;5.732;2023-03-25T22:41:46;7.00;;;4.27;;
15669;SDS011;18524;45.190;5.732;2023-03-25T22:46:36;6.10;;;4.20;;
15669;SDS011;18524;45.190;5.732;2023-03-25T22:51:29;6.23;;;4.13;;
15669;SDS011;18524;45.190;5.732;2023-03-25T22:56:19;6.03;;;3.57;;
15669;SDS011;18524;45.190;5.732;2023-03-25T23:01:18;5.70;;;4.10;;
15669;SDS011;18524;45.190;5.732;2023-03-25T23:06:11;5.87;;;4.40;;
15669;SDS011;18524;45.190;5.732;2023-03-25T23:11:05;6.43;;;4.20;;
15669;SDS011;18524;45.190;5.732;2023-03-25T23:15:58;6.03;;;4.47;;
15669;SDS011;18524;45.190;5.732;2023-03-25T23:20:51;4.50;;;4.07;;
15669;SDS011;18524;45.190;5.732;2023-03-25T23:25:42;5.70;;;4.00;;
15669;SDS011;18524;45.190;5.732;2023-03-25T23:30:32;8.13;;;4.57;;
15669;SDS011;18524;45.190;5.732;2023-03-25T23:35:23;7.07;;;4.80;;
15669;SDS011;18524;45.190;5.732;2023-03-25T23:40:13;6.40;;;4.03;;
15669;SDS011;18524;45.190;5.732;2023-03-25T23:45:03;6.77;;;4.70;;
15669;SDS011;18524;45.190;5.732;2023-03-25T23:49:54;6.30;;;4.40;;
15669;SDS011;18524;45.190;5.732;2023-03-25T23:54:46;8.27;;;4.80;;
15669;SDS011;18524;45.190;5.732;2023-03-25T23:59:37;5.67;;;4.23;;
